Terminal Aerodrome Forecast
Issued by NWS

Home | Current Version | Previous Version | Text Only | Print | Product List | Glossary On
Versions: 1 2 3 4 5 6 7 8 9 10 11 12 13 14 15 16 17
539
FTUS46 KSGX 162332
TAFONT
TAF
KONT 162332Z 1700/1806 VRB05KT P6SM SKC
     FM172200 27008KT P6SM SKC
     FM180100 VRB05KT P6SM SKC=

USA.gov is the U.S. government's official web portal to all federal, state and local government web resources and services.